»·PEaware :: WAT1252 KGTF-KBZN

WAT1252 :: KGTF-KBZN

FLIGHT INFORMATION

Flight Status: Arrived
Operator:
Walker Air Transport
More flights by this operator :: More flights under this callsign
Pilot: David D. (37029)
Aircraft: PIPER PA-31/31P NAVAJO CHIEFTAIN
(PA31)
More flights by this aircraft type
Origin: KGTF Great Falls Intl
United States
Destination: KBZN Gallatin
United States
More flights between these airports :: More routes between these airports
Route: GTF V536 SWDD V365 BZN
File this flight plan on PilotEdge
Remarks:
Altitude:
(Current/Filed)
13,000ft
Speed:
(Current/Filed)
180kts
Departed: 10-Mar-23 10:47 AM
Arrived: 10-Mar-23 11:28 AM
Distance/Time
Traveled:
103nm/0:41
Distance/Time
To Go:
Arrived

Flight Plot

Page will automatically refresh every two minutes.

Flight plan parsing failed; only flown route is shown


Map Options




Map Legend


Flown Route
Filed Route
Departure Airport
Arrival Airport
Navaid (VOR, NDB)
Fix

Horizontal Profiles

Position Reports

Time Latitude Longitude Heading Altitude Ground
Speed
10-Mar-23 10:24 47.485269 -111.354817 217 3658ft 0kts
10-Mar-23 10:25 47.485269 -111.354817 217 3658ft 0kts
10-Mar-23 10:26 47.485269 -111.354817 217 3658ft 0kts
10-Mar-23 10:27 47.485269 -111.354817 217 3658ft 0kts
10-Mar-23 10:28 47.485269 -111.354817 217 3658ft 0kts
10-Mar-23 10:29 47.485269 -111.354817 217 3658ft 0kts
10-Mar-23 10:30 47.485269 -111.354817 217 3658ft 0kts
10-Mar-23 10:31 47.485269 -111.354817 217 3658ft 0kts
10-Mar-23 10:32 47.485269 -111.354817 217 3658ft 0kts
10-Mar-23 10:33 47.485269 -111.354817 217 3658ft 0kts
10-Mar-23 10:33 47.485269 -111.354817 217 3658ft 0kts
10-Mar-23 10:35 47.485269 -111.354817 217 3658ft 0kts
10-Mar-23 10:36 47.485269 -111.354817 217 3658ft 0kts
10-Mar-23 10:37 47.485269 -111.354817 217 3658ft 0kts
10-Mar-23 10:38 47.485269 -111.354817 217 3658ft 0kts
10-Mar-23 10:38 47.485269 -111.354817 217 3658ft 0kts
10-Mar-23 10:39 47.485269 -111.354817 217 3658ft 0kts
10-Mar-23 10:41 47.485567 -111.355537 319 3660ft 9kts
10-Mar-23 10:42 47.486847 -111.355603 44 3659ft 15kts
10-Mar-23 10:42 47.488759 -111.353005 0 3645ft 4kts
10-Mar-23 10:43 47.488954 -111.353049 345 3645ft 0kts
10-Mar-23 10:44 47.488960 -111.353052 343 3645ft 0kts
10-Mar-23 10:45 47.489199 -111.353289 316 3647ft 3kts
10-Mar-23 10:46 47.480708 -111.367758 230 3942ft 98kts
10-Mar-23 10:47 47.461616 -111.398453 226 5087ft 100kts
10-Mar-23 10:48 47.437047 -111.414301 186 6062ft 101kts
10-Mar-23 10:49 47.406646 -111.417970 185 7004ft 126kts
10-Mar-23 10:50 47.371632 -111.422849 185 8449ft 130kts
10-Mar-23 10:51 47.335399 -111.427689 185 9964ft 132kts
10-Mar-23 10:52 47.299658 -111.432506 186 11380ft 127kts
10-Mar-23 10:53 47.263469 -111.437334 185 12565ft 137kts
10-Mar-23 10:54 47.220323 -111.442957 185 12969ft 181kts
10-Mar-23 10:55 47.169322 -111.449928 185 12965ft 184kts
10-Mar-23 10:56 47.118513 -111.456724 185 12965ft 183kts
10-Mar-23 10:57 47.068083 -111.463473 185 12965ft 182kts
10-Mar-23 10:58 47.017640 -111.470169 185 12965ft 183kts
10-Mar-23 10:59 46.966718 -111.476987 185 12965ft 184kts
10-Mar-23 11:00 46.915441 -111.483790 185 12965ft 185kts
10-Mar-23 11:01 46.864155 -111.490583 185 12965ft 185kts
10-Mar-23 11:02 46.812919 -111.497359 185 12965ft 185kts
10-Mar-23 11:03 46.761668 -111.504116 185 12965ft 185kts
10-Mar-23 11:04 46.710465 -111.510863 185 12965ft 185kts
10-Mar-23 11:05 46.659070 -111.517603 185 12965ft 185kts
10-Mar-23 11:06 46.607705 -111.524300 185 12965ft 185kts
10-Mar-23 11:07 46.556459 -111.531021 185 12964ft 185kts
10-Mar-23 11:08 46.505059 -111.537700 185 12965ft 185kts
10-Mar-23 11:09 46.453754 -111.543953 178 12963ft 185kts
10-Mar-23 11:10 46.405319 -111.519181 157 12965ft 185kts
10-Mar-23 11:11 46.357745 -111.490449 157 12965ft 185kts
10-Mar-23 11:12 46.309685 -111.461882 158 12665ft 198kts
10-Mar-23 11:13 46.256279 -111.432081 169 11606ft 211kts
10-Mar-23 11:14 46.198099 -111.424924 176 10587ft 209kts
10-Mar-23 11:15 46.140485 -111.419045 176 9578ft 206kts
10-Mar-23 11:16 46.083917 -111.413179 176 8588ft 202kts
10-Mar-23 11:17 46.031275 -111.407780 176 8050ft 173kts
10-Mar-23 11:18 45.986031 -111.403084 176 8060ft 157kts
10-Mar-23 11:19 45.949115 -111.391675 139 8059ft 121kts
10-Mar-23 11:20 45.925618 -111.358813 135 8062ft 118kts
10-Mar-23 11:21 45.900889 -111.323896 136 7623ft 124kts
10-Mar-23 11:22 45.876701 -111.286881 132 6695ft 131kts
10-Mar-23 11:23 45.853270 -111.255750 139 6124ft 105kts
10-Mar-23 11:24 45.832357 -111.227181 136 5615ft 100kts
10-Mar-23 11:25 45.811841 -111.199588 136 5106ft 103kts
10-Mar-23 11:26 45.791924 -111.171684 137 4566ft 99kts
10-Mar-23 11:27 45.778182 -111.152687 136 4452ft 36kts
10-Mar-23 11:28 45.774750 -111.149800 225 4459ft 0kts
10-Mar-23 11:29 45.773455 -111.151698 225 4462ft 9kts
10-Mar-23 11:30 45.773272 -111.152652 311 4463ft 0kts
10-Mar-23 11:31 45.773408 -111.152877 311 4462ft 0kts
10-Mar-23 11:32 45.773408 -111.152877 311 4462ft 0kts

Navigation Log

Ident Type
Flight plan parsing failed, navigation log unavailable